createdAt,value
2019-01-20T00:00:25.948Z,1009.89
2019-01-20T00:01:26.589Z,1009.95
2019-01-20T00:02:27.215Z,1009.89
2019-01-20T00:03:27.851Z,1009.92
2019-01-20T00:04:28.489Z,1009.90
2019-01-20T00:05:29.121Z,1009.92
2019-01-20T00:06:29.750Z,1009.94
2019-01-20T00:07:30.390Z,1009.89
2019-01-20T00:08:31.019Z,1009.91
2019-01-20T00:09:31.660Z,1009.86
2019-01-20T00:10:33.348Z,1009.86
2019-01-20T00:11:33.930Z,1009.87
2019-01-20T00:12:34.564Z,1009.85
2019-01-20T00:13:35.192Z,1009.84
2019-01-20T00:14:35.827Z,1009.83
2019-01-20T00:15:36.451Z,1009.80
2019-01-20T00:16:37.087Z,1009.81
2019-01-20T00:17:37.717Z,1009.77
2019-01-20T00:18:38.351Z,1009.75
2019-01-20T00:19:38.989Z,1009.75
2019-01-20T00:20:39.624Z,1009.77
2019-01-20T00:21:40.254Z,1009.73
2019-01-20T00:22:40.891Z,1009.76
2019-01-20T00:23:41.517Z,1009.71
2019-01-20T00:24:42.162Z,1009.74
2019-01-20T00:25:42.796Z,1009.74
2019-01-20T00:26:43.421Z,1009.77
2019-01-20T00:27:44.068Z,1009.72
2019-01-20T00:28:44.701Z,1009.73
2019-01-20T00:29:45.334Z,1009.76
2019-01-20T00:30:45.968Z,1009.72
2019-01-20T00:31:46.599Z,1009.74
2019-01-20T00:32:47.230Z,1009.73
2019-01-20T00:33:47.861Z,1009.82
2019-01-20T00:34:48.496Z,1009.79
2019-01-20T00:35:49.136Z,1009.80
2019-01-20T00:36:49.768Z,1009.80
2019-01-20T00:37:50.404Z,1009.86
2019-01-20T00:38:51.038Z,1009.86
2019-01-20T00:39:51.665Z,1009.84
2019-01-20T00:40:52.315Z,1009.86
2019-01-20T00:41:52.938Z,1009.89
2019-01-20T00:42:53.568Z,1009.92
2019-01-20T00:43:54.204Z,1009.90
2019-01-20T00:45:02.362Z,1009.89
2019-01-20T00:45:56.477Z,1009.89
2019-01-20T00:46:57.111Z,1009.89
2019-01-20T00:47:57.752Z,1009.83
2019-01-20T00:48:58.385Z,1009.86
2019-01-20T00:49:59.000Z,1009.87
2019-01-20T00:50:59.642Z,1009.88
2019-01-20T00:52:00.274Z,1009.88
2019-01-20T00:53:00.910Z,1009.89
2019-01-20T00:54:01.639Z,1009.88
2019-01-20T00:55:02.314Z,1009.87
2019-01-20T00:56:02.889Z,1009.87
2019-01-20T00:57:03.525Z,1009.85
2019-01-20T00:58:04.183Z,1009.83
2019-01-20T00:59:05.185Z,1009.85
2019-01-20T01:00:05.819Z,1009.78
2019-01-20T01:01:06.441Z,1009.81
2019-01-20T01:02:07.079Z,1009.82
2019-01-20T01:03:07.710Z,1009.80
2019-01-20T01:04:08.338Z,1009.82
2019-01-20T01:05:08.985Z,1009.83
2019-01-20T01:06:09.615Z,1009.84
2019-01-20T01:07:10.264Z,1009.81
2019-01-20T01:08:10.888Z,1009.75
2019-01-20T01:09:11.525Z,1009.77
2019-01-20T01:10:12.152Z,1009.85
2019-01-20T01:11:12.795Z,1009.85
2019-01-20T01:12:13.429Z,1009.86
2019-01-20T01:13:14.076Z,1009.86
2019-01-20T01:14:14.713Z,1009.88
2019-01-20T01:15:15.345Z,1009.90
2019-01-20T01:16:15.980Z,1009.88
2019-01-20T01:17:16.612Z,1009.94
2019-01-20T01:18:17.240Z,1009.90
2019-01-20T01:19:17.888Z,1009.94
2019-01-20T01:20:18.525Z,1009.92
2019-01-20T01:21:19.163Z,1009.94
2019-01-20T01:22:19.786Z,1009.90
2019-01-20T01:23:20.422Z,1009.92
2019-01-20T01:24:21.051Z,1009.95
2019-01-20T01:25:21.678Z,1009.91
2019-01-20T01:26:22.313Z,1009.93
2019-01-20T01:27:22.949Z,1009.90
2019-01-20T01:28:23.580Z,1009.93
2019-01-20T01:29:24.232Z,1009.95
2019-01-20T01:30:24.847Z,1009.97
2019-01-20T01:31:25.483Z,1009.99
2019-01-20T01:32:26.115Z,1009.96
2019-01-20T01:33:26.757Z,1009.97
2019-01-20T01:34:27.415Z,1009.95
2019-01-20T01:35:28.012Z,1009.98
2019-01-20T01:36:28.668Z,1009.97
2019-01-20T01:37:29.301Z,1009.96
2019-01-20T01:38:29.932Z,1009.97
2019-01-20T01:39:30.568Z,1009.94
2019-01-20T01:40:31.199Z,1009.95
2019-01-20T01:41:38.848Z,1009.93
2019-01-20T01:42:32.456Z,1009.87
2019-01-20T01:43:33.133Z,1009.88
2019-01-20T01:44:33.745Z,1009.86
2019-01-20T01:45:34.499Z,1009.85
2019-01-20T01:46:35.127Z,1009.83
2019-01-20T01:47:35.767Z,1009.84
2019-01-20T01:48:36.392Z,1009.85
2019-01-20T01:49:37.017Z,1009.89
2019-01-20T01:50:37.660Z,1009.85
2019-01-20T01:51:38.303Z,1009.85
2019-01-20T01:52:38.936Z,1009.86
2019-01-20T01:53:39.567Z,1009.85
2019-01-20T01:54:40.217Z,1009.85
2019-01-20T01:55:41.122Z,1009.85
2019-01-20T01:56:41.471Z,1009.85
2019-01-20T01:57:42.110Z,1009.82
2019-01-20T01:58:42.752Z,1009.88
2019-01-20T01:59:43.399Z,1009.85
2019-01-20T02:00:44.027Z,1009.86
2019-01-20T02:01:44.672Z,1009.84
2019-01-20T02:02:46.301Z,1009.84
2019-01-20T02:03:46.935Z,1009.86
2019-01-20T02:04:47.571Z,1009.83
2019-01-20T02:05:48.203Z,1009.87
2019-01-20T02:06:48.839Z,1009.90
2019-01-20T02:07:49.469Z,1009.85
2019-01-20T02:08:50.128Z,1009.89
2019-01-20T02:09:50.745Z,1009.87
2019-01-20T02:10:51.378Z,1009.93
2019-01-20T02:11:52.007Z,1009.90
2019-01-20T02:12:52.635Z,1009.89
2019-01-20T02:13:53.284Z,1009.82
2019-01-20T02:14:53.904Z,1009.84
2019-01-20T02:15:55.540Z,1009.90
2019-01-20T02:16:56.167Z,1009.85
2019-01-20T02:17:56.808Z,1009.86
2019-01-20T02:18:57.445Z,1009.86
2019-01-20T02:19:58.176Z,1009.85
2019-01-20T02:20:58.812Z,1009.86
2019-01-20T02:21:59.444Z,1009.83
2019-01-20T02:23:00.072Z,1009.89
2019-01-20T02:24:00.758Z,1009.89
2019-01-20T02:25:01.343Z,1009.92
2019-01-20T02:26:02.042Z,1009.89
2019-01-20T02:27:02.646Z,1009.93
2019-01-20T02:28:03.288Z,1009.93
2019-01-20T02:29:03.916Z,1009.91
2019-01-20T02:30:04.552Z,1009.92
2019-01-20T02:31:05.193Z,1009.92
2019-01-20T02:32:05.892Z,1009.91
2019-01-20T02:33:06.498Z,1009.88
2019-01-20T02:34:07.168Z,1009.85
2019-01-20T02:35:07.776Z,1009.82
2019-01-20T02:36:08.495Z,1009.86
2019-01-20T02:37:09.119Z,1009.86
2019-01-20T02:38:09.766Z,1009.85
2019-01-20T02:39:10.400Z,1009.85
2019-01-20T02:40:11.028Z,1009.90
2019-01-20T02:41:11.670Z,1009.87
2019-01-20T02:42:12.313Z,1009.89
2019-01-20T02:43:12.945Z,1009.90
2019-01-20T02:44:13.581Z,1009.90
2019-01-20T02:45:14.215Z,1009.90
2019-01-20T02:46:14.847Z,1009.91
2019-01-20T02:47:15.478Z,1009.93
2019-01-20T02:48:17.122Z,1009.93
2019-01-20T02:49:17.782Z,1009.97
2019-01-20T02:50:18.665Z,1009.91
2019-01-20T02:51:19.023Z,1009.92
2019-01-20T02:52:19.643Z,1009.90
2019-01-20T02:53:20.279Z,1009.90
2019-01-20T02:54:20.912Z,1009.87
2019-01-20T02:55:21.552Z,1009.88
2019-01-20T02:56:22.192Z,1009.86
2019-01-20T02:57:22.822Z,1009.89
2019-01-20T02:58:23.458Z,1009.88
2019-01-20T02:59:24.090Z,1009.86
2019-01-20T03:00:24.722Z,1009.84
2019-01-20T03:01:25.351Z,1009.82
2019-01-20T03:02:25.987Z,1009.87
2019-01-20T03:03:26.620Z,1009.86
2019-01-20T03:04:27.264Z,1009.87
2019-01-20T03:05:27.901Z,1009.80
2019-01-20T03:06:28.539Z,1009.81
2019-01-20T03:07:29.169Z,1009.82
2019-01-20T03:08:29.802Z,1009.84
2019-01-20T03:09:30.501Z,1009.85
2019-01-20T03:10:31.053Z,1009.83
2019-01-20T03:11:31.690Z,1009.84
2019-01-20T03:12:32.322Z,1009.85
2019-01-20T03:13:32.949Z,1009.79
2019-01-20T03:14:33.590Z,1009.85
2019-01-20T03:15:34.210Z,1009.87
2019-01-20T03:16:34.853Z,1009.83
2019-01-20T03:17:35.485Z,1009.87
2019-01-20T03:18:36.119Z,1009.88
2019-01-20T03:19:36.753Z,1009.90
2019-01-20T03:20:37.381Z,1009.90
2019-01-20T03:21:38.022Z,1009.90
2019-01-20T03:22:38.650Z,1009.85
2019-01-20T03:23:39.290Z,1009.87
2019-01-20T03:24:39.920Z,1009.86
2019-01-20T03:25:40.553Z,1009.91
2019-01-20T03:26:41.190Z,1009.93
2019-01-20T03:27:41.830Z,1009.91
2019-01-20T03:28:42.447Z,1009.91
2019-01-20T03:29:43.084Z,1009.89
2019-01-20T03:30:43.718Z,1009.88
2019-01-20T03:31:44.353Z,1009.86
2019-01-20T03:32:44.994Z,1009.88
2019-01-20T03:33:45.725Z,1009.88
2019-01-20T03:34:46.363Z,1009.88
2019-01-20T03:35:46.995Z,1009.89
2019-01-20T03:36:47.634Z,1009.88
2019-01-20T03:37:48.264Z,1009.88
2019-01-20T03:38:48.899Z,1009.90
2019-01-20T03:39:49.532Z,1009.86
2019-01-20T03:40:50.166Z,1009.89
2019-01-20T03:41:50.797Z,1009.88
2019-01-20T03:42:51.444Z,1009.89
2019-01-20T03:43:52.073Z,1009.89
2019-01-20T03:44:53.705Z,1009.88
2019-01-20T03:45:54.346Z,1009.86
2019-01-20T03:46:54.975Z,1009.88
2019-01-20T03:47:55.607Z,1009.87
2019-01-20T03:48:56.247Z,1009.87
2019-01-20T03:49:56.884Z,1009.89
2019-01-20T03:50:57.521Z,1009.86
2019-01-20T03:51:58.144Z,1009.87
2019-01-20T03:52:58.793Z,1009.84
2019-01-20T03:53:59.425Z,1009.85
2019-01-20T03:55:00.093Z,1009.84
2019-01-20T03:56:00.695Z,1009.84
2019-01-20T03:57:01.336Z,1009.80
2019-01-20T03:58:01.958Z,1009.83
2019-01-20T03:59:02.596Z,1009.81
2019-01-20T04:00:03.236Z,1009.83
2019-01-20T04:01:03.868Z,1009.81
2019-01-20T04:02:04.502Z,1009.84
2019-01-20T04:03:05.146Z,1009.80
2019-01-20T04:04:05.785Z,1009.82
2019-01-20T04:05:06.408Z,1009.82
2019-01-20T04:06:07.044Z,1009.82
2019-01-20T04:07:07.669Z,1009.82
2019-01-20T04:08:08.319Z,1009.81
2019-01-20T04:09:08.944Z,1009.81
2019-01-20T04:10:09.574Z,1009.79
2019-01-20T04:11:10.211Z,1009.76
2019-01-20T04:12:10.845Z,1009.77
2019-01-20T04:13:11.568Z,1009.75
2019-01-20T04:14:12.099Z,1009.81
2019-01-20T04:15:12.745Z,1009.77
2019-01-20T04:16:13.365Z,1009.78
2019-01-20T04:17:14.005Z,1009.79
2019-01-20T04:18:14.630Z,1009.81
2019-01-20T04:19:15.261Z,1009.81
2019-01-20T04:20:15.893Z,1009.78
2019-01-20T04:21:16.522Z,1009.79
2019-01-20T04:53:29.079Z,1009.79
2019-01-20T04:54:29.686Z,1009.75
2019-01-20T04:57:23.786Z,1009.78
2019-01-20T04:58:24.435Z,1009.83
2019-01-20T05:01:18.662Z,1009.81
2019-01-20T05:02:19.295Z,1009.84
2019-01-20T05:05:13.822Z,1009.87
2019-01-20T05:06:14.425Z,1009.84
2019-01-20T05:09:08.634Z,1009.88
2019-01-20T05:10:09.289Z,1009.89
2019-01-20T05:13:03.374Z,1009.91
2019-01-20T05:14:04.020Z,1009.92
2019-01-20T05:16:58.178Z,1009.94
2019-01-20T05:17:58.806Z,1009.97
2019-01-20T05:18:59.435Z,1009.96
2019-01-20T05:20:00.274Z,1009.98
2019-01-20T05:21:00.699Z,1009.94
2019-01-20T05:22:01.410Z,1009.98
2019-01-20T05:23:01.982Z,1010.01
2019-01-20T05:24:02.623Z,1010.03
2019-01-20T05:25:03.247Z,1010.02
2019-01-20T05:26:03.872Z,1010.03
2019-01-20T05:27:04.506Z,1010.00
2019-01-20T05:28:05.140Z,1010.00
2019-01-20T05:29:05.774Z,1010.02
2019-01-20T05:30:06.411Z,1010.04
2019-01-20T05:31:07.049Z,1010.06
2019-01-20T05:32:07.691Z,1010.02
2019-01-20T05:33:08.317Z,1010.03
2019-01-20T05:34:08.948Z,1010.00
2019-01-20T05:35:09.594Z,1009.93
2019-01-20T05:36:10.212Z,1009.95
2019-01-20T05:37:10.844Z,1009.97
2019-01-20T05:38:11.474Z,1009.92
2019-01-20T05:39:12.121Z,1009.94
2019-01-20T05:40:12.762Z,1009.96
2019-01-20T05:41:13.393Z,1009.91
2019-01-20T05:42:14.023Z,1009.92
2019-01-20T05:43:14.659Z,1009.93
2019-01-20T05:44:15.292Z,1009.95
2019-01-20T05:45:15.927Z,1009.94
2019-01-20T05:46:16.564Z,1009.99
2019-01-20T05:47:17.199Z,1010.00
2019-01-20T05:48:17.830Z,1009.95
2019-01-20T05:49:18.470Z,1009.95
2019-01-20T05:50:19.105Z,1009.96
2019-01-20T05:51:19.743Z,1009.95
2019-01-20T05:52:20.359Z,1009.98
2019-01-20T05:53:20.987Z,1010.01
2019-01-20T05:54:21.626Z,1009.99
2019-01-20T05:55:22.266Z,1009.97
2019-01-20T05:56:22.891Z,1010.00
2019-01-20T05:57:23.531Z,1010.04
2019-01-20T05:58:24.178Z,1010.02
2019-01-20T05:59:24.807Z,1010.08
2019-01-20T06:00:25.441Z,1010.07
2019-01-20T06:01:27.318Z,1010.10
2019-01-20T06:02:26.696Z,1010.10
2019-01-20T06:03:27.338Z,1010.07
2019-01-20T06:04:27.967Z,1010.07
2019-01-20T06:05:28.605Z,1010.15
2019-01-20T06:06:29.235Z,1010.17
2019-01-20T06:07:29.866Z,1010.15
2019-01-20T06:08:30.495Z,1010.14
2019-01-20T06:09:31.126Z,1010.19
2019-01-20T06:10:31.759Z,1010.17
2019-01-20T06:11:32.395Z,1010.18
2019-01-20T06:12:33.025Z,1010.14
2019-01-20T06:13:33.662Z,1010.13
2019-01-20T06:14:34.298Z,1010.12
2019-01-20T06:15:34.933Z,1010.12
2019-01-20T06:16:35.562Z,1010.10
2019-01-20T06:17:36.194Z,1010.12
2019-01-20T06:18:36.823Z,1010.09
2019-01-20T06:19:37.461Z,1010.09
2019-01-20T06:20:38.093Z,1010.14
2019-01-20T06:21:38.726Z,1010.09
2019-01-20T06:22:39.358Z,1010.09
2019-01-20T06:23:40.001Z,1010.15
2019-01-20T06:24:40.624Z,1010.14
2019-01-20T06:25:41.265Z,1010.14
2019-01-20T06:26:41.889Z,1010.12
2019-01-20T06:27:42.523Z,1010.14
2019-01-20T06:28:43.147Z,1010.12
2019-01-20T06:29:43.788Z,1010.12
2019-01-20T06:30:44.423Z,1010.16
2019-01-20T06:31:45.051Z,1010.10
2019-01-20T06:32:45.689Z,1010.09
2019-01-20T06:33:46.322Z,1010.12
2019-01-20T06:34:46.952Z,1010.11
2019-01-20T06:35:47.594Z,1010.08
2019-01-20T06:36:50.070Z,1010.15
2019-01-20T06:37:50.712Z,1010.15
2019-01-20T06:38:51.343Z,1010.12
2019-01-20T06:39:51.979Z,1010.12
2019-01-20T06:40:52.616Z,1010.16
2019-01-20T06:41:53.241Z,1010.15
2019-01-20T06:43:01.231Z,1010.19
2019-01-20T06:43:54.514Z,1010.19
2019-01-20T06:44:55.191Z,1010.20
2019-01-20T06:45:55.814Z,1010.21
2019-01-20T06:46:56.442Z,1010.26
2019-01-20T06:47:57.067Z,1010.24
2019-01-20T06:48:57.707Z,1010.27
2019-01-20T06:49:58.339Z,1010.33
2019-01-20T06:50:58.986Z,1010.32
2019-01-20T06:51:59.621Z,1010.34
2019-01-20T06:53:00.265Z,1010.31
2019-01-20T06:54:00.884Z,1010.32
2019-01-20T06:55:01.518Z,1010.34
2019-01-20T06:56:02.172Z,1010.29
2019-01-20T06:57:02.792Z,1010.30
2019-01-20T06:58:03.511Z,1010.29
2019-01-20T06:59:04.163Z,1010.32
2019-01-20T07:00:04.856Z,1010.35
2019-01-20T07:01:05.500Z,1010.36
2019-01-20T07:02:06.198Z,1010.44
2019-01-20T07:03:06.828Z,1010.45
2019-01-20T07:04:07.542Z,1010.48
2019-01-20T07:05:08.173Z,1010.48
2019-01-20T07:06:08.888Z,1010.52
2019-01-20T07:07:09.524Z,1010.48
2019-01-20T07:08:10.230Z,1010.49
2019-01-20T07:09:10.857Z,1010.49
2019-01-20T07:10:11.601Z,1010.46
2019-01-20T07:11:12.230Z,1010.51
2019-01-20T07:12:12.928Z,1010.52
2019-01-20T07:13:13.548Z,1010.56
2019-01-20T07:14:14.278Z,1010.54
2019-01-20T07:15:14.908Z,1010.54
2019-01-20T07:16:15.543Z,1010.56
2019-01-20T07:17:16.170Z,1010.59
2019-01-20T07:18:16.861Z,1010.61
2019-01-20T07:19:17.491Z,1010.63
2019-01-20T07:20:18.197Z,1010.59
2019-01-20T07:21:18.834Z,1010.62
2019-01-20T07:22:19.540Z,1010.63
2019-01-20T07:23:20.187Z,1010.58
2019-01-20T07:24:20.888Z,1010.63
2019-01-20T07:25:21.521Z,1010.63
2019-01-20T07:26:22.236Z,1010.67
2019-01-20T07:27:22.856Z,1010.70
2019-01-20T07:28:23.577Z,1010.72
2019-01-20T07:29:24.741Z,1010.71
2019-01-20T07:30:24.924Z,1010.74
2019-01-20T07:31:25.565Z,1010.73
2019-01-20T07:32:26.200Z,1010.72
2019-01-20T07:33:26.835Z,1010.76
2019-01-20T07:34:27.632Z,1010.78
2019-01-20T07:35:28.143Z,1010.82
2019-01-20T07:36:28.856Z,1010.84
2019-01-20T07:37:29.484Z,1010.80
2019-01-20T07:38:30.220Z,1010.79
2019-01-20T07:39:30.875Z,1010.86
2019-01-20T07:40:31.545Z,1010.87
2019-01-20T07:41:32.175Z,1010.85
2019-01-20T07:42:32.889Z,1010.85
2019-01-20T07:43:33.514Z,1010.87
2019-01-20T07:44:34.235Z,1010.88
2019-01-20T07:45:34.868Z,1010.93
2019-01-20T15:24:56.276Z,1012.99
2019-01-20T15:25:56.909Z,1013.03
2019-01-20T15:26:57.549Z,1013.00
2019-01-20T15:27:58.541Z,1013.02
2019-01-20T15:28:59.207Z,1013.06
2019-01-20T15:29:59.877Z,1013.11
2019-01-20T15:31:00.517Z,1013.10
2019-01-20T15:32:01.225Z,1013.14
2019-01-20T15:33:01.868Z,1013.13
2019-01-20T15:34:02.572Z,1013.13
2019-01-20T15:35:03.215Z,1013.13
2019-01-20T15:36:03.844Z,1013.15
2019-01-20T15:37:04.488Z,1013.14
2019-01-20T15:38:05.113Z,1013.19
2019-01-20T15:39:05.773Z,1013.17
2019-01-20T15:40:06.430Z,1013.22
2019-01-20T15:41:07.074Z,1013.24
2019-01-20T15:42:07.703Z,1013.24
2019-01-20T15:43:08.343Z,1013.26
2019-01-20T15:44:08.980Z,1013.23
2019-01-20T15:45:16.204Z,1013.28
2019-01-20T15:46:10.256Z,1013.28
2019-01-20T15:47:10.920Z,1013.28
2019-01-20T15:48:11.538Z,1013.28
2019-01-20T15:49:12.188Z,1013.26
2019-01-20T15:50:12.809Z,1013.32
2019-01-20T15:51:13.456Z,1013.30
2019-01-20T15:52:14.093Z,1013.29
2019-01-20T15:53:14.737Z,1013.30
2019-01-20T15:54:15.373Z,1013.33
2019-01-20T15:55:16.015Z,1013.29
2019-01-20T15:56:16.656Z,1013.33
2019-01-20T15:57:17.294Z,1013.28
2019-01-20T15:58:17.932Z,1013.33
2019-01-20T15:59:18.580Z,1013.32
2019-01-20T16:00:19.215Z,1013.33
2019-01-20T16:01:19.859Z,1013.33
2019-01-20T16:02:20.493Z,1013.38
2019-01-20T16:03:21.135Z,1013.39
2019-01-20T16:04:24.034Z,1013.41
2019-01-20T16:05:22.412Z,1013.38
2019-01-20T16:06:23.060Z,1013.36
2019-01-20T16:07:23.754Z,1013.36
2019-01-20T16:08:24.355Z,1013.39
2019-01-20T16:09:24.980Z,1013.41
2019-01-20T16:10:25.613Z,1013.43
2019-01-20T16:11:31.253Z,1013.44
2019-01-20T16:12:27.909Z,1013.49
2019-01-20T16:13:28.545Z,1013.51
2019-01-20T16:14:29.183Z,1013.48
2019-01-20T16:15:29.846Z,1013.51
2019-01-20T16:16:30.472Z,1013.57
2019-01-20T16:17:31.114Z,1013.54
2019-01-20T16:18:31.804Z,1013.55
2019-01-20T16:19:32.455Z,1013.57
2019-01-20T16:20:33.078Z,1013.60
2019-01-20T16:21:33.685Z,1013.56
2019-01-20T16:22:34.346Z,1013.56
2019-01-20T16:23:34.960Z,1013.58
2019-01-20T16:24:35.600Z,1013.58
2019-01-20T16:25:36.253Z,1013.55
2019-01-20T16:26:36.884Z,1013.60
2019-01-20T16:27:37.532Z,1013.55
2019-01-20T16:28:38.164Z,1013.59
2019-01-20T16:29:38.806Z,1013.56
2019-01-20T16:30:39.442Z,1013.57
2019-01-20T16:31:40.098Z,1013.55
2019-01-20T16:32:40.717Z,1013.56
2019-01-20T16:33:41.358Z,1013.59
2019-01-20T16:34:41.993Z,1013.55
2019-01-20T16:35:42.630Z,1013.57
2019-01-20T16:36:43.271Z,1013.64
2019-01-20T16:37:43.911Z,1013.64
2019-01-20T16:38:44.554Z,1013.61
2019-01-20T16:39:45.905Z,1013.63
2019-01-20T16:40:45.828Z,1013.63
2019-01-20T16:41:46.461Z,1013.63
2019-01-20T16:42:47.119Z,1013.61
2019-01-20T16:43:47.783Z,1013.64
2019-01-20T16:44:48.405Z,1013.62
2019-01-20T16:45:49.043Z,1013.63
2019-01-20T16:46:49.687Z,1013.65
2019-01-20T16:47:50.354Z,1013.64
2019-01-20T16:48:51.019Z,1013.66
2019-01-20T16:49:51.627Z,1013.70
2019-01-20T16:50:52.250Z,1013.68
2019-01-20T16:51:52.899Z,1013.73
2019-01-20T16:52:54.853Z,1013.69
2019-01-20T16:53:54.168Z,1013.75
2019-01-20T16:54:54.803Z,1013.74
2019-01-20T16:55:55.441Z,1013.74
2019-01-20T16:56:56.078Z,1013.83
2019-01-20T16:57:56.717Z,1013.79
2019-01-20T16:58:57.350Z,1013.81
2019-01-20T16:59:58.024Z,1013.81
2019-01-20T17:00:58.659Z,1013.83
2019-01-20T17:01:59.282Z,1013.86
2019-01-20T17:02:59.928Z,1013.88
2019-01-20T17:04:00.570Z,1013.89
2019-01-20T17:05:01.208Z,1013.89
2019-01-20T17:06:01.872Z,1013.83
2019-01-20T17:07:02.548Z,1013.86
2019-01-20T17:08:03.169Z,1013.84
2019-01-20T17:09:03.815Z,1013.83
2019-01-20T17:10:04.457Z,1013.83
2019-01-20T17:11:05.080Z,1013.84
2019-01-20T17:12:05.739Z,1013.85
2019-01-20T17:13:06.375Z,1013.84
2019-01-20T17:14:07.023Z,1013.85
2019-01-20T17:15:07.658Z,1013.86
2019-01-20T17:16:08.301Z,1013.84
2019-01-20T17:17:08.938Z,1013.91
2019-01-20T17:18:09.578Z,1013.91
2019-01-20T17:19:17.245Z,1013.91
2019-01-20T17:20:10.870Z,1013.90
2019-01-20T17:21:11.516Z,1013.89
2019-01-20T17:22:12.143Z,1013.92
2019-01-20T17:23:12.782Z,1013.96
2019-01-20T17:24:13.445Z,1013.94
2019-01-20T17:25:14.063Z,1013.96
2019-01-20T17:26:14.705Z,1013.98
2019-01-20T17:27:15.338Z,1013.99
2019-01-20T17:28:15.990Z,1014.00
2019-01-20T17:29:16.642Z,1014.04
2019-01-20T17:30:17.354Z,1014.07
2019-01-20T17:31:17.896Z,1014.05
2019-01-20T17:32:18.547Z,1014.05
2019-01-20T17:33:19.175Z,1014.05
2019-01-20T17:34:19.821Z,1014.09
2019-01-20T17:35:20.453Z,1014.06
2019-01-20T17:36:21.102Z,1014.07
2019-01-20T17:37:21.726Z,1014.08
2019-01-20T17:38:22.374Z,1014.12
2019-01-20T17:39:23.010Z,1014.07
2019-01-20T17:40:23.683Z,1014.09
2019-01-20T17:41:24.306Z,1014.10
2019-01-20T17:42:24.914Z,1014.10
2019-01-20T17:43:25.549Z,1014.09
2019-01-20T17:44:26.192Z,1014.06
2019-01-20T17:45:26.827Z,1014.03
2019-01-20T17:46:27.469Z,1014.05
2019-01-20T17:47:28.126Z,1014.06
2019-01-20T17:48:28.754Z,1014.07
2019-01-20T17:49:29.387Z,1014.08
2019-01-20T17:50:30.031Z,1014.08
2019-01-20T17:51:30.663Z,1014.10
2019-01-20T17:52:31.312Z,1014.09
2019-01-20T17:53:31.948Z,1014.11
2019-01-20T17:54:32.574Z,1014.11
2019-01-20T17:55:33.211Z,1014.14
2019-01-20T17:56:33.857Z,1014.14
2019-01-20T17:57:34.491Z,1014.16
2019-01-20T17:58:35.134Z,1014.18
2019-01-20T17:59:35.776Z,1014.21
2019-01-20T18:00:36.413Z,1014.19
2019-01-20T18:01:37.042Z,1014.23
2019-01-20T18:02:37.680Z,1014.23
2019-01-20T18:03:38.326Z,1014.25
2019-01-20T18:04:38.985Z,1014.23
2019-01-20T18:05:39.608Z,1014.23
2019-01-20T18:06:40.249Z,1014.25
2019-01-20T18:07:40.929Z,1014.24
2019-01-20T18:08:41.575Z,1014.26
2019-01-20T18:09:42.207Z,1014.32
2019-01-20T18:10:42.845Z,1014.28
2019-01-20T18:11:43.485Z,1014.32
2019-01-20T18:12:44.121Z,1014.33
2019-01-20T18:13:44.832Z,1014.37
2019-01-20T18:14:45.419Z,1014.35
2019-01-20T18:15:46.052Z,1014.37
2019-01-20T18:16:46.699Z,1014.39
2019-01-20T18:17:47.324Z,1014.43
2019-01-20T18:18:47.970Z,1014.44
2019-01-20T18:19:48.607Z,1014.46
2019-01-20T18:20:49.242Z,1014.49
2019-01-20T18:21:49.951Z,1014.46
2019-01-20T18:22:50.578Z,1014.49
2019-01-20T18:23:51.214Z,1014.48
2019-01-20T18:24:51.859Z,1014.53
2019-01-20T18:25:52.494Z,1014.53
2019-01-20T18:26:53.141Z,1014.55
2019-01-20T18:27:53.802Z,1014.53
2019-01-20T18:28:54.451Z,1014.56
2019-01-20T18:29:55.079Z,1014.55
2019-01-20T18:30:55.720Z,1014.53
2019-01-20T18:31:56.363Z,1014.61
2019-01-20T18:32:56.988Z,1014.57
2019-01-20T18:33:57.624Z,1014.61
2019-01-20T18:34:58.279Z,1014.59
2019-01-20T18:35:58.911Z,1014.66
2019-01-20T18:36:59.545Z,1014.65
2019-01-20T18:38:00.191Z,1014.63
2019-01-20T18:39:00.824Z,1014.67
2019-01-20T18:40:01.465Z,1014.65
2019-01-20T18:41:02.108Z,1014.67
2019-01-20T18:42:02.778Z,1014.70
2019-01-20T18:43:03.424Z,1014.74
2019-01-20T18:44:04.123Z,1014.70
2019-01-20T18:45:04.757Z,1014.78
2019-01-20T18:46:07.459Z,1014.77
2019-01-20T18:47:08.096Z,1014.77
2019-01-20T18:48:10.853Z,1014.80
2019-01-20T18:49:11.484Z,1014.83
2019-01-20T18:50:20.700Z,1014.78
2019-01-20T18:51:21.344Z,1014.79
2019-01-20T18:52:22.045Z,1014.82
2019-01-20T18:53:22.677Z,1014.78
2019-01-20T18:54:38.237Z,1014.82
2019-01-20T18:55:38.870Z,1014.82
2019-01-20T18:57:00.515Z,1014.84
2019-01-20T18:58:01.154Z,1014.82
2019-01-20T18:59:02.842Z,1014.86
2019-01-20T19:00:03.477Z,1014.82
2019-01-20T19:01:06.233Z,1014.88
2019-01-20T19:02:06.871Z,1014.87
2019-01-20T19:03:22.274Z,1014.89
2019-01-20T19:04:22.899Z,1014.90
2019-01-20T19:05:23.606Z,1014.93
2019-01-20T19:06:24.265Z,1014.96
2019-01-20T19:07:45.997Z,1014.99
2019-01-20T19:08:46.642Z,1014.97
2019-01-20T19:09:47.342Z,1014.98
2019-01-20T19:10:47.985Z,1014.96
2019-01-20T19:11:49.753Z,1015.03
2019-01-20T19:12:50.393Z,1015.03
2019-01-20T19:15:18.298Z,1015.05
2019-01-20T19:16:19.024Z,1015.06
2019-01-20T19:17:19.668Z,1015.06
2019-01-20T19:18:22.327Z,1015.11
2019-01-20T19:19:22.956Z,1015.09
2019-01-20T19:20:38.207Z,1015.11
2019-01-20T19:21:38.843Z,1015.13
2019-01-20T19:22:41.503Z,1015.09
2019-01-20T19:23:42.173Z,1015.15
2019-01-20T19:24:42.897Z,1015.16
2019-01-20T19:25:43.538Z,1015.14
2019-01-20T19:26:44.186Z,1015.17
2019-01-20T19:27:44.809Z,1015.14
2019-01-20T19:28:45.441Z,1015.17
2019-01-20T19:29:46.077Z,1015.11
2019-01-20T19:30:46.720Z,1015.17
2019-01-20T19:31:47.479Z,1015.14
2019-01-20T19:32:48.075Z,1015.17
2019-01-20T19:33:48.726Z,1015.13
2019-01-20T19:34:49.393Z,1015.22
2019-01-20T19:35:50.014Z,1015.18
2019-01-20T19:36:50.656Z,1015.21
2019-01-20T19:37:51.284Z,1015.14
2019-01-20T19:38:51.920Z,1015.18
2019-01-20T19:39:52.646Z,1015.19
2019-01-20T19:40:53.288Z,1015.17
2019-01-20T19:41:53.963Z,1015.15
2019-01-20T19:42:54.617Z,1015.18
2019-01-20T19:43:55.251Z,1015.21
2019-01-20T19:44:55.885Z,1015.19
2019-01-20T19:45:56.554Z,1015.18
2019-01-20T19:46:57.195Z,1015.18
2019-01-20T19:47:57.838Z,1015.25
2019-01-20T19:48:58.475Z,1015.20
2019-01-20T19:49:59.102Z,1015.22
2019-01-20T19:50:59.739Z,1015.17
2019-01-20T19:52:00.406Z,1015.18
2019-01-20T19:53:01.044Z,1015.20
2019-01-20T19:54:01.678Z,1015.18
2019-01-20T19:55:02.305Z,1015.22
2019-01-20T19:56:02.955Z,1015.19
2019-01-20T19:57:03.591Z,1015.22
2019-01-20T19:58:04.225Z,1015.26
2019-01-20T19:59:04.867Z,1015.33
2019-01-20T20:00:05.554Z,1015.31
2019-01-20T20:01:06.143Z,1015.35
2019-01-20T20:02:06.785Z,1015.38
2019-01-20T20:03:07.417Z,1015.42
2019-01-20T20:04:08.048Z,1015.45
2019-01-20T20:05:08.697Z,1015.41
2019-01-20T20:06:09.584Z,1015.44
2019-01-20T20:07:10.226Z,1015.45
2019-01-20T20:08:10.866Z,1015.45
2019-01-20T20:09:11.492Z,1015.45
2019-01-20T20:10:12.132Z,1015.49
2019-01-20T20:11:12.769Z,1015.49
2019-01-20T20:12:13.400Z,1015.50
2019-01-20T20:13:42.716Z,1015.55
2019-01-20T20:14:43.354Z,1015.54
2019-01-20T20:15:44.066Z,1015.53
2019-01-20T20:16:44.692Z,1015.55
2019-01-20T20:18:56.878Z,1015.56
2019-01-20T20:20:18.518Z,1015.59
2019-01-20T20:21:19.150Z,1015.58
2019-01-20T20:22:19.843Z,1015.59
2019-01-20T20:23:20.475Z,1015.63
2019-01-20T20:24:42.123Z,1015.63
2019-01-20T20:25:42.748Z,1015.66
2019-01-20T20:26:51.195Z,1015.67
2019-01-20T20:27:51.839Z,1015.67
2019-01-20T20:29:08.214Z,1015.64
2019-01-20T20:30:08.850Z,1015.66
2019-01-20T20:31:11.604Z,1015.66
2019-01-20T20:32:12.258Z,1015.69
2019-01-20T20:33:14.896Z,1015.68
2019-01-20T20:34:15.528Z,1015.71
2019-01-20T20:35:32.213Z,1015.72
2019-01-20T20:36:32.871Z,1015.75
2019-01-20T20:38:44.825Z,1015.80
2019-01-20T20:40:00.208Z,1015.80
2019-01-20T20:41:00.844Z,1015.78
2019-01-20T20:42:17.358Z,1015.84